< < Back
Terminal Aerodrome Forecast


Current Version              Previous Versions:   1  2  3  4  5  6  7  8  9  

Terminal Aerodrome Forecast

717
FTUS42 KJAX 011720
TAFSSI
TAF
KSSI 011720Z 0118/0218 14012KT P6SM VCSH SCT040 BKN250
     FM020200 15007KT P6SM SCT050 SCT250
     FM020800 18006KT P6SM SCT050 SCT250=

Latest METAR

645
SAUS70 KWBC 020600 RRL
MTRSSI
METAR KSSI 020553Z AUTO 17006KT 10SM CLR 23/22 A3002 RMK AO2 SLP168
60000 T02330222 10244 20222 56017


USA.gov is the U.S. government's official web portal to all federal, state and local government web resources and services.